Time;durP1;ratioP1;P1;durP2;ratioP2;P2;SDS_P1;SDS_P2;PMS_P1;PMS_P2;Temp;Humidity;BMP_temperature;BMP_pressure;BME280_temperature;BME280_humidity;BME280_pressure;Samples;Min_cycle;Max_cycle;Signal;HPM_P1;HPM_P2
2023/03/03 00:01:03;;;;;;;15.50;9.70;;;1.00;99.90;;;;;;5004789;28;20045;-59
2023/03/03 00:03:29;;;;;;;11.05;8.80;;;1.00;99.90;;;;;;4990158;28;20044;-58
2023/03/03 00:05:55;;;;;;;20.35;9.68;;;1.00;99.90;;;;;;5004897;28;20033;-59
2023/03/03 00:08:21;;;;;;;13.75;9.95;;;1.00;99.90;;;;;;5023730;28;20041;-59
2023/03/03 00:10:47;;;;;;;10.55;8.63;;;0.90;99.90;;;;;;5020586;28;20444;-60
2023/03/03 00:13:21;;;;;;;55.33;12.88;;;0.90;99.90;;;;;;4990707;28;20057;-59
2023/03/03 00:15:47;;;;;;;19.48;10.35;;;0.80;99.90;;;;;;5023595;28;20038;-59
2023/03/03 00:18:40;;;;;;;25.38;11.15;;;0.80;99.90;;;;;;5017896;28;20033;-60
2023/03/03 00:21:20;;;;;;;31.27;11.20;;;0.70;99.90;;;;;;5021713;28;20041;-60
2023/03/03 00:23:46;;;;;;;18.02;10.73;;;0.70;99.90;;;;;;5025387;28;20041;-58
2023/03/03 00:26:24;;;;;;;117.03;14.82;;;0.70;99.90;;;;;;5001829;28;20666;-60
2023/03/03 00:28:52;;;;;;;48.30;12.65;;;0.70;99.90;;;;;;5030023;28;20544;-59
2023/03/03 00:31:28;;;;;;;29.38;11.50;;;0.70;99.90;;;;;;5021519;28;20041;-60
2023/03/03 00:33:57;;;;;;;29.13;11.85;;;0.70;99.90;;;;;;5018376;28;20049;-59
2023/03/03 00:36:37;;;;;;;29.30;11.77;;;0.70;99.90;;;;;;5019452;28;20041;-60
2023/03/03 00:39:24;;;;;;;14.35;11.13;;;0.60;99.90;;;;;;4993551;28;20591;-60
2023/03/03 00:41:50;;;;;;;11.85;9.13;;;0.60;99.90;;;;;;4998186;28;20042;-58
2023/03/03 00:44:44;;;;;;;13.10;10.32;;;0.70;99.90;;;;;;5000841;28;20504;-59
2023/03/03 00:47:36;;;;;;;14.30;10.65;;;0.50;99.90;;;;;;4987768;28;20162;-60
2023/03/03 00:50:05;;;;;;;14.20;9.27;;;0.50;99.90;;;;;;4984654;28;20068;-59
2023/03/03 00:52:34;;;;;;;14.13;10.07;;;0.50;99.90;;;;;;5001848;28;20077;-60
2023/03/03 00:55:00;;;;;;;13.38;10.27;;;0.40;99.90;;;;;;5024073;22;20722;-60
2023/03/03 00:57:25;;;;;;;12.23;9.52;;;0.40;99.90;;;;;;5034040;28;20037;-60
2023/03/03 00:59:51;;;;;;;12.75;9.68;;;0.40;99.90;;;;;;5033290;28;20029;-60
2023/03/03 01:02:17;;;;;;;12.05;8.95;;;0.50;99.90;;;;;;5037701;28;20036;-60
2023/03/03 01:04:49;;;;;;;12.52;9.32;;;0.50;99.90;;;;;;5031202;28;20043;-60
2023/03/03 01:07:15;;;;;;;13.95;10.43;;;0.50;99.90;;;;;;5035371;28;20499;-60
2023/03/03 01:09:41;;;;;;;10.52;8.27;;;0.50;99.90;;;;;;5037443;28;20415;-60
2023/03/03 01:12:07;;;;;;;12.43;9.55;;;0.40;99.90;;;;;;5021149;28;20048;-60
2023/03/03 01:14:33;;;;;;;12.63;9.52;;;0.40;99.90;;;;;;5051556;28;20038;-60
2023/03/03 01:16:59;;;;;;;11.43;9.05;;;0.40;99.90;;;;;;5053109;28;20614;-60
2023/03/03 01:19:24;;;;;;;11.93;8.95;;;0.40;99.90;;;;;;5039962;28;20334;-60
2023/03/03 01:21:50;;;;;;;13.23;10.20;;;0.40;99.90;;;;;;5042434;28;20476;-60
2023/03/03 01:24:16;;;;;;;12.38;9.32;;;0.40;99.90;;;;;;5040342;28;20049;-60
2023/03/03 01:26:42;;;;;;;12.23;9.23;;;0.40;99.90;;;;;;5036035;28;20045;-60
2023/03/03 01:29:08;;;;;;;12.30;9.30;;;0.50;99.90;;;;;;5033715;28;20061;-60
2023/03/03 01:31:34;;;;;;;12.15;9.23;;;0.40;99.90;;;;;;5039470;28;20585;-60
2023/03/03 01:34:00;;;;;;;11.75;9.00;;;0.40;99.90;;;;;;5035883;28;20053;-60
2023/03/03 01:36:27;;;;;;;11.43;8.57;;;0.40;99.90;;;;;;5040964;28;20377;-61
2023/03/03 01:38:53;;;;;;;14.50;9.65;;;0.40;99.90;;;;;;5036046;28;20381;-60
2023/03/03 01:41:19;;;;;;;12.35;9.27;;;0.40;99.90;;;;;;5038840;28;20049;-60
2023/03/03 01:43:48;;;;;;;14.88;10.13;;;0.40;99.90;;;;;;5022850;28;20515;-60
2023/03/03 01:46:41;;;;;;;11.43;9.02;;;0.40;99.90;;;;;;5022793;28;20037;-61
2023/03/03 01:49:14;;;;;;;9.70;8.00;;;0.40;99.90;;;;;;5038981;28;20109;-60
2023/03/03 01:52:18;;;;;;;12.55;9.63;;;0.40;99.90;;;;;;5036581;28;20171;-60
2023/03/03 01:54:51;;;;;;;12.57;9.27;;;0.30;99.90;;;;;;5007362;28;20049;-61
2023/03/03 01:57:24;;;;;;;11.88;8.98;;;0.30;99.90;;;;;;5041340;28;20060;-60
2023/03/03 01:59:53;;;;;;;11.85;9.27;;;0.30;99.90;;;;;;5038109;28;20408;-60
2023/03/03 02:02:19;;;;;;;11.10;8.75;;;0.20;99.90;;;;;;5045497;28;20053;-60
2023/03/03 02:04:45;;;;;;;10.55;7.80;;;0.20;99.90;;;;;;5034305;28;20126;-60
2023/03/03 02:07:13;;;;;;;9.38;7.20;;;0.20;99.90;;;;;;5020586;28;20044;-61
2023/03/03 02:10:06;;;;;;;10.65;6.90;;;0.20;99.90;;;;;;5036821;28;20068;-58
2023/03/03 02:12:45;;;;;;;8.27;6.70;;;0.20;99.90;;;;;;5036751;28;20056;-58
2023/03/03 02:15:21;;;;;;;9.10;6.97;;;0.20;99.90;;;;;;5038977;28;20123;-60
2023/03/03 02:17:50;;;;;;;8.68;6.57;;;0.20;99.90;;;;;;5045312;28;20166;-60
2023/03/03 02:20:25;;;;;;;6.97;6.13;;;0.20;99.90;;;;;;5044733;28;20048;-60
2023/03/03 02:23:05;;;;;;;8.70;6.10;;;0.20;99.90;;;;;;5041403;28;20230;-60
2023/03/03 02:25:41;;;;;;;7.38;5.57;;;0.20;99.90;;;;;;5038130;28;20052;-60
2023/03/03 02:28:07;;;;;;;6.28;5.57;;;0.10;99.90;;;;;;5043427;28;20590;-60
2023/03/03 02:30:37;;;;;;;7.03;5.90;;;0.20;99.90;;;;;;5043835;28;20032;-60
2023/03/03 02:33:03;;;;;;;6.75;5.60;;;0.10;99.90;;;;;;5038525;28;20138;-60
2023/03/03 02:35:35;;;;;;;7.25;5.78;;;0.10;99.90;;;;;;5041033;28;20564;-60
2023/03/03 02:38:06;;;;;;;6.85;5.90;;;0.10;99.90;;;;;;5040611;28;20041;-60
2023/03/03 02:40:39;;;;;;;7.72;5.35;;;0.10;99.90;;;;;;5042447;28;20059;-60
2023/03/03 02:43:05;;;;;;;6.93;5.47;;;0.10;99.90;;;;;;5035313;28;20095;-60
2023/03/03 02:45:31;;;;;;;6.68;5.05;;;0.10;99.90;;;;;;5040232;28;20335;-60
2023/03/03 02:47:57;;;;;;;6.47;5.63;;;0.10;99.90;;;;;;5019137;28;20079;-63
2023/03/03 02:50:23;;;;;;;6.75;5.72;;;0.10;99.90;;;;;;5056607;28;20029;-60
2023/03/03 02:52:49;;;;;;;7.10;5.93;;;0.00;99.90;;;;;;5036922;28;20161;-60
2023/03/03 02:55:14;;;;;;;7.80;5.53;;;0.00;99.90;;;;;;5038902;28;20366;-60
2023/03/03 02:57:40;;;;;;;6.90;5.40;;;0.00;99.90;;;;;;5023419;28;20175;-60
2023/03/03 03:00:06;;;;;;;6.43;5.43;;;0.00;99.90;;;;;;5038718;28;20051;-60
2023/03/03 03:02:32;;;;;;;6.47;5.43;;;0.00;99.90;;;;;;5043198;28;20044;-59
2023/03/03 03:04:58;;;;;;;6.43;5.32;;;0.00;99.90;;;;;;5036537;28;20499;-59
2023/03/03 03:07:24;;;;;;;5.68;4.75;;;0.00;99.90;;;;;;5023757;28;20065;-60
2023/03/03 03:09:50;;;;;;;5.68;4.72;;;-0.10;99.90;;;;;;5044783;28;20041;-59
2023/03/03 03:12:18;;;;;;;7.78;5.47;;;0.00;99.90;;;;;;5040174;28;20040;-59
2023/03/03 03:14:43;;;;;;;6.22;5.20;;;-0.10;99.90;;;;;;5039524;28;20392;-60
2023/03/03 03:17:11;;;;;;;8.63;5.25;;;-0.10;99.90;;;;;;5025295;28;20094;-59
2023/03/03 03:19:37;;;;;;;7.45;4.88;;;-0.10;99.90;;;;;;5023046;28;20518;-60
2023/03/03 03:22:03;;;;;;;8.30;5.45;;;-0.10;99.90;;;;;;5042161;28;20033;-60
2023/03/03 03:24:28;;;;;;;7.85;4.50;;;-0.10;99.90;;;;;;5037426;28;20127;-60
2023/03/03 03:26:54;;;;;;;9.75;5.43;;;-0.10;99.90;;;;;;5035862;28;20056;-60
2023/03/03 03:29:20;;;;;;;7.53;4.90;;;-0.10;99.90;;;;;;5039610;28;20044;-60
2023/03/03 03:31:46;;;;;;;6.22;4.40;;;-0.10;99.90;;;;;;5038229;28;20495;-59
2023/03/03 03:34:12;;;;;;;6.35;4.03;;;-0.20;99.90;;;;;;5037699;28;20044;-60
2023/03/03 03:36:38;;;;;;;7.70;4.38;;;-0.10;99.90;;;;;;5039575;28;20127;-60
2023/03/03 03:39:05;;;;;;;7.38;4.28;;;-0.10;99.90;;;;;;5020796;28;20037;-60
2023/03/03 03:41:31;;;;;;;7.10;3.58;;;-0.10;99.90;;;;;;5025187;28;20049;-60
2023/03/03 03:43:57;;;;;;;7.00;3.83;;;-0.10;99.90;;;;;;5041385;28;20056;-60
2023/03/03 03:46:22;;;;;;;8.57;4.65;;;-0.10;99.90;;;;;;5041522;28;20072;-60
2023/03/03 03:48:48;;;;;;;5.50;3.90;;;-0.10;99.90;;;;;;5032423;28;20072;-59
2023/03/03 03:51:14;;;;;;;7.17;3.73;;;-0.10;99.90;;;;;;5038600;28;20091;-59
2023/03/03 03:53:39;;;;;;;8.77;3.53;;;-0.10;99.90;;;;;;5037848;28;20044;-59
2023/03/03 03:56:06;;;;;;;6.95;3.22;;;-0.10;99.90;;;;;;5022947;28;20109;-60
2023/03/03 03:58:31;;;;;;;8.80;3.60;;;-0.10;99.90;;;;;;5061567;28;20043;-59
2023/03/03 04:01:06;;;;;;;6.80;2.83;;;0.00;99.90;;;;;;5038439;28;20773;-59
2023/03/03 04:03:31;;;;;;;9.75;3.47;;;0.00;99.90;;;;;;5020832;28;20037;-60
2023/03/03 04:05:57;;;;;;;7.23;2.63;;;0.00;99.90;;;;;;5024493;28;20555;-60
2023/03/03 04:08:23;;;;;;;3.70;2.65;;;-0.10;99.90;;;;;;5033195;28;20037;-60
2023/03/03 04:10:49;;;;;;;6.75;3.00;;;-0.10;99.90;;;;;;5037445;28;20055;-60
2023/03/03 04:13:14;;;;;;;5.07;3.22;;;0.00;99.90;;;;;;5039696;28;20076;-59
2023/03/03 04:15:41;;;;;;;7.97;3.40;;;0.00;99.90;;;;;;5038727;28;20110;-60
2023/03/03 04:18:06;;;;;;;7.17;3.13;;;-0.10;99.90;;;;;;5016520;28;20495;-59
2023/03/03 04:20:32;;;;;;;7.13;3.13;;;-0.10;99.90;;;;;;5037073;28;20052;-60
2023/03/03 04:22:58;;;;;;;7.70;3.05;;;-0.10;99.90;;;;;;5002886;28;20033;-59
2023/03/03 04:25:24;;;;;;;9.23;3.83;;;-0.10;99.90;;;;;;5037161;28;20037;-59
2023/03/03 04:27:51;;;;;;;7.03;3.03;;;-0.10;99.90;;;;;;5033213;28;20045;-60
2023/03/03 04:30:17;;;;;;;4.27;2.60;;;-0.10;99.90;;;;;;5040055;28;20068;-59
2023/03/03 04:32:43;;;;;;;6.37;3.00;;;-0.20;99.90;;;;;;5034112;28;20059;-59
2023/03/03 04:35:09;;;;;;;5.30;3.30;;;-0.10;99.90;;;;;;5021558;28;20399;-60
2023/03/03 04:37:36;;;;;;;8.43;2.97;;;-0.20;99.90;;;;;;5038750;28;20446;-59
2023/03/03 04:40:05;;;;;;;6.77;3.07;;;-0.20;99.90;;;;;;5033072;28;20045;-60
2023/03/03 04:42:30;;;;;;;7.73;2.90;;;-0.20;99.90;;;;;;5018747;28;20053;-60
2023/03/03 04:44:56;;;;;;;4.75;2.35;;;-0.20;99.90;;;;;;5032052;28;20524;-59
2023/03/03 04:47:22;;;;;;;3.70;2.60;;;-0.20;99.90;;;;;;5022270;28;20118;-59
2023/03/03 04:49:47;;;;;;;6.57;3.27;;;-0.20;99.90;;;;;;5036302;28;20416;-60
2023/03/03 04:52:13;;;;;;;4.50;2.30;;;-0.20;99.90;;;;;;5033975;28;20040;-60
2023/03/03 04:54:39;;;;;;;6.73;2.50;;;-0.20;99.90;;;;;;5013309;28;20064;-60
2023/03/03 04:57:05;;;;;;;4.33;2.23;;;-0.20;99.90;;;;;;5021374;28;20137;-60
2023/03/03 04:59:31;;;;;;;5.93;2.90;;;-0.20;99.90;;;;;;5037450;28;20331;-60
2023/03/03 05:01:56;;;;;;;4.97;2.58;;;-0.20;99.90;;;;;;5031960;28;20142;-59
2023/03/03 05:04:22;;;;;;;8.30;2.70;;;-0.20;99.90;;;;;;5034390;28;20226;-60
2023/03/03 05:06:48;;;;;;;7.57;2.80;;;-0.10;99.90;;;;;;5040011;28;20400;-60
2023/03/03 05:09:13;;;;;;;4.67;2.53;;;-0.20;99.90;;;;;;5038807;28;20040;-59
2023/03/03 05:11:39;;;;;;;6.10;3.47;;;-0.20;99.90;;;;;;5055440;28;20102;-60
2023/03/03 05:14:07;;;;;;;5.53;2.25;;;-0.20;99.90;;;;;;5029914;28;20045;-60
2023/03/03 05:16:32;;;;;;;5.70;2.72;;;-0.20;99.90;;;;;;5032006;28;20045;-59
2023/03/03 05:18:58;;;;;;;5.43;2.10;;;-0.10;99.90;;;;;;5021135;28;20052;-59
2023/03/03 05:21:24;;;;;;;6.87;3.70;;;-0.10;99.90;;;;;;5054381;28;20066;-59
2023/03/03 05:23:50;;;;;;;7.50;2.60;;;-0.10;99.90;;;;;;5020090;28;20510;-60
2023/03/03 05:26:15;;;;;;;5.77;2.53;;;-0.20;99.90;;;;;;5020697;28;20106;-59
2023/03/03 05:28:41;;;;;;;4.97;2.10;;;-0.20;99.90;;;;;;5034966;28;20474;-60
2023/03/03 05:31:07;;;;;;;4.33;1.90;;;-0.20;99.90;;;;;;5052785;28;20048;-59
2023/03/03 05:33:33;;;;;;;4.50;2.10;;;-0.20;99.90;;;;;;5020860;28;20429;-60
2023/03/03 05:35:58;;;;;;;2.80;1.77;;;-0.20;99.90;;;;;;5039781;28;20036;-60
2023/03/03 05:38:25;;;;;;;3.77;1.67;;;-0.20;99.90;;;;;;5039394;28;20788;-60
2023/03/03 05:40:50;;;;;;;4.88;1.98;;;-0.20;99.90;;;;;;5038013;28;20032;-59
2023/03/03 05:43:16;;;;;;;4.13;1.58;;;-0.20;99.90;;;;;;5035482;28;20653;-60
2023/03/03 05:45:42;;;;;;;2.90;1.70;;;-0.20;99.90;;;;;;5034362;28;20041;-60
2023/03/03 05:48:09;;;;;;;3.40;2.07;;;-0.20;99.90;;;;;;5034997;28;20048;-60
2023/03/03 05:50:36;;;;;;;4.83;2.57;;;-0.20;99.90;;;;;;5043855;28;20171;-59
2023/03/03 05:53:02;;;;;;;2.93;1.67;;;-0.20;99.90;;;;;;5043574;28;20107;-59
2023/03/03 05:55:28;;;;;;;4.33;1.87;;;-0.30;99.90;;;;;;5040326;28;20222;-59
2023/03/03 05:57:54;;;;;;;2.53;1.53;;;-0.30;99.90;;;;;;5042367;28;20147;-59
2023/03/03 06:00:20;;;;;;;4.27;1.80;;;-0.20;99.90;;;;;;5040835;28;20061;-60
2023/03/03 06:02:46;;;;;;;3.33;1.53;;;-0.30;99.90;;;;;;5057220;28;20039;-60
2023/03/03 06:05:12;;;;;;;3.60;1.80;;;-0.30;99.90;;;;;;5036777;28;20033;-60
2023/03/03 06:07:38;;;;;;;3.83;1.60;;;-0.30;99.90;;;;;;5043324;28;20037;-60
2023/03/03 06:10:04;;;;;;;4.03;1.93;;;-0.30;99.90;;;;;;5041149;28;20033;-60
2023/03/03 06:12:30;;;;;;;6.60;2.10;;;-0.30;99.90;;;;;;5038960;28;20040;-59
2023/03/03 06:14:56;;;;;;;6.50;2.80;;;-0.30;99.90;;;;;;5036838;28;20496;-59
2023/03/03 06:17:21;;;;;;;5.30;2.37;;;-0.30;99.90;;;;;;5038145;28;20033;-59
2023/03/03 06:19:47;;;;;;;4.13;2.37;;;-0.30;99.90;;;;;;5039497;28;20037;-59
2023/03/03 06:22:13;;;;;;;5.00;2.23;;;-0.30;99.90;;;;;;5041135;28;20528;-59
2023/03/03 06:24:39;;;;;;;4.10;1.70;;;-0.30;99.90;;;;;;5055031;28;20963;-60
2023/03/03 06:27:04;;;;;;;5.07;2.40;;;-0.30;99.90;;;;;;5041169;28;20080;-59
2023/03/03 06:29:30;;;;;;;4.53;2.20;;;-0.30;99.90;;;;;;5042895;28;20049;-59
2023/03/03 06:31:56;;;;;;;4.07;2.00;;;-0.30;99.90;;;;;;5039546;28;20040;-60
2023/03/03 06:34:22;;;;;;;2.87;1.80;;;-0.30;99.90;;;;;;5020046;28;20037;-59
2023/03/03 06:36:48;;;;;;;5.20;1.90;;;-0.30;99.90;;;;;;5040765;28;20372;-60
2023/03/03 06:39:14;;;;;;;4.73;2.37;;;-0.30;99.90;;;;;;5038396;28;20097;-59
2023/03/03 06:41:39;;;;;;;6.47;2.50;;;-0.30;99.90;;;;;;5036901;28;20059;-60
2023/03/03 06:44:05;;;;;;;5.53;2.73;;;-0.30;99.90;;;;;;5037445;28;20041;-59
2023/03/03 06:46:31;;;;;;;4.73;2.53;;;-0.30;99.90;;;;;;5043441;28;20064;-59
2023/03/03 06:48:57;;;;;;;5.27;2.90;;;-0.30;99.90;;;;;;5036166;28;20072;-59
2023/03/03 06:51:29;;;;;;;4.23;2.20;;;-0.30;99.90;;;;;;5038900;28;20032;-59
2023/03/03 06:54:00;;;;;;;5.03;2.27;;;-0.20;99.90;;;;;;5040444;28;20515;-60
2023/03/03 06:56:27;;;;;;;4.80;2.60;;;-0.20;99.90;;;;;;5044624;22;20069;-58
2023/03/03 06:58:59;;;;;;;4.00;2.20;;;-0.10;99.90;;;;;;5017303;28;20041;-61
2023/03/03 07:01:26;;;;;;;5.80;2.63;;;-0.10;99.90;;;;;;5014654;28;20230;-58
2023/03/03 07:03:52;;;;;;;4.60;2.23;;;-0.10;99.90;;;;;;4994655;28;20132;-60
2023/03/03 07:06:21;;;;;;;4.10;2.30;;;0.00;99.90;;;;;;5025296;28;20132;-59
2023/03/03 07:08:46;;;;;;;3.75;2.17;;;0.20;99.90;;;;;;5017623;28;20046;-60
2023/03/03 07:11:16;;;;;;;5.47;2.38;;;0.70;99.90;;;;;;5004743;28;20096;-60
2023/03/03 07:13:46;;;;;;;7.70;2.57;;;1.40;99.90;;;;;;5009821;28;20407;-61
2023/03/03 07:16:16;;;;;;;4.88;2.10;;;1.80;99.90;;;;;;5020207;28;21162;-61
2023/03/03 07:18:41;;;;;;;3.22;1.90;;;2.10;99.90;;;;;;5019396;28;20037;-61
2023/03/03 07:21:36;;;;;;;4.70;1.88;;;2.40;99.90;;;;;;5019515;28;20079;-60
2023/03/03 07:24:28;;;;;;;6.10;2.38;;;2.60;99.90;;;;;;5007933;28;20139;-61
2023/03/03 07:27:10;;;;;;;3.63;2.00;;;2.70;99.90;;;;;;5020754;28;20044;-61
2023/03/03 07:29:40;;;;;;;5.53;1.80;;;2.50;99.90;;;;;;5005995;28;20064;-60
2023/03/03 07:32:33;;;;;;;5.30;2.45;;;2.20;99.90;;;;;;5023671;28;20373;-60
2023/03/03 07:35:00;;;;;;;5.85;2.08;;;2.00;99.90;;;;;;5000973;28;20409;-60
2023/03/03 07:37:34;;;;;;;7.78;2.40;;;1.90;99.90;;;;;;5010963;28;20045;-60
2023/03/03 07:40:05;;;;;;;4.47;2.22;;;1.80;99.90;;;;;;5018040;28;20474;-60
2023/03/03 07:42:49;;;;;;;5.60;2.22;;;1.80;99.90;;;;;;5013528;28;20140;-60
2023/03/03 07:45:28;;;;;;;7.63;2.90;;;1.80;99.90;;;;;;5008619;28;21255;-61
2023/03/03 07:48:16;;;;;;;7.55;3.40;;;1.80;99.90;;;;;;4993599;28;20521;-61
2023/03/03 07:50:41;;;;;;;4.93;3.00;;;2.00;99.90;;;;;;5014318;28;20041;-61
2023/03/03 07:53:20;;;;;;;13.50;3.72;;;2.20;99.90;;;;;;5017975;28;20037;-61
2023/03/03 07:55:46;;;;;;;9.90;4.13;;;2.40;99.90;;;;;;5018586;28;20058;-61
2023/03/03 07:58:15;;;;;;;11.35;4.55;;;2.50;99.90;;;;;;5010101;28;20080;-61
2023/03/03 08:01:25;;;;;;;7.55;3.40;;;2.60;99.90;;;;;;5012356;28;20127;-61
2023/03/03 08:03:51;;;;;;;13.75;3.47;;;2.70;99.90;;;;;;4970400;28;20423;-60
2023/03/03 08:06:49;;;;;;;9.13;4.07;;;2.90;99.90;;;;;;4997219;28;20056;-61
2023/03/03 08:09:27;;;;;;;7.90;3.53;;;3.10;99.90;;;;;;5013931;28;20575;-61
2023/03/03 08:11:54;;;;;;;15.63;3.80;;;3.40;99.90;;;;;;5014240;28;20684;-60
2023/03/03 08:14:26;;;;;;;8.18;3.70;;;3.60;99.90;;;;;;5015341;28;21254;-61
2023/03/03 08:16:52;;;;;;;9.60;3.35;;;3.80;99.90;;;;;;4996997;28;20041;-60
2023/03/03 08:19:18;;;;;;;6.38;2.55;;;4.00;99.90;;;;;;5016038;28;20503;-61
2023/03/03 08:21:44;;;;;;;9.38;3.00;;;4.20;99.90;;;;;;4982600;28;20267;-60
2023/03/03 08:24:09;;;;;;;7.70;2.60;;;4.40;99.90;;;;;;5021465;28;20643;-61
2023/03/03 08:26:35;;;;;;;7.75;2.58;;;4.60;99.90;;;;;;5018049;28;20034;-61
2023/03/03 08:29:01;;;;;;;5.43;2.22;;;4.80;99.90;;;;;;5020879;28;20084;-61
2023/03/03 08:31:28;;;;;;;6.70;3.28;;;5.00;99.90;;;;;;5009229;28;20155;-62
2023/03/03 08:33:53;;;;;;;4.50;1.92;;;5.10;99.90;;;;;;4998582;28;20485;-62
2023/03/03 08:36:19;;;;;;;9.00;2.42;;;5.30;99.90;;;;;;5014520;28;20045;-62
2023/03/03 08:38:45;;;;;;;7.38;2.60;;;5.40;99.90;;;;;;5011274;28;20080;-60
2023/03/03 08:41:11;;;;;;;7.88;2.38;;;5.50;99.90;;;;;;5003076;28;20044;-60
2023/03/03 08:43:36;;;;;;;5.82;2.10;;;5.70;99.90;;;;;;5021086;28;20037;-60
2023/03/03 08:46:04;;;;;;;4.15;1.80;;;5.70;99.90;;;;;;4996700;28;20037;-59
2023/03/03 08:48:32;;;;;;;7.70;2.05;;;5.80;99.90;;;;;;5007254;28;20041;-60
2023/03/03 08:50:58;;;;;;;7.97;1.90;;;5.90;99.90;;;;;;5015100;28;20054;-59
2023/03/03 08:53:24;;;;;;;6.38;1.90;;;6.00;99.90;;;;;;5010718;28;20168;-60
2023/03/03 08:55:50;;;;;;;6.65;2.08;;;6.10;99.90;;;;;;5021557;28;20396;-59
2023/03/03 08:58:18;;;;;;;11.63;1.85;;;6.20;99.90;;;;;;5018329;28;20312;-60
2023/03/03 09:00:44;;;;;;;5.38;1.92;;;6.30;99.90;;;;;;4992981;28;20395;-59
2023/03/03 09:03:10;;;;;;;4.00;1.60;;;6.40;99.90;;;;;;5012748;28;20107;-60
2023/03/03 09:05:41;;;;;;;4.75;2.22;;;6.60;99.90;;;;;;5018710;28;20049;-59
2023/03/03 09:08:08;;;;;;;6.35;1.90;;;6.70;99.90;;;;;;5013854;28;20045;-60
2023/03/03 09:10:34;;;;;;;8.07;1.35;;;6.90;99.90;;;;;;5035974;28;20126;-60
2023/03/03 09:13:18;;;;;;;7.00;1.30;;;7.00;99.90;;;;;;5006367;28;20287;-60
2023/03/03 09:15:46;;;;;;;3.65;1.38;;;7.10;99.90;;;;;;5000835;28;20360;-59
2023/03/03 09:18:18;;;;;;;3.15;1.70;;;7.30;99.90;;;;;;5008763;28;20050;-59
2023/03/03 09:20:45;;;;;;;7.13;1.10;;;7.40;99.90;;;;;;5013125;28;20519;-59
2023/03/03 09:23:23;;;;;;;4.65;1.30;;;7.40;99.90;;;;;;5014929;28;20053;-59
2023/03/03 09:25:50;;;;;;;3.92;0.90;;;7.40;99.90;;;;;;4999366;28;20042;-60
2023/03/03 09:28:27;;;;;;;2.58;0.80;;;7.60;99.90;;;;;;4976523;28;20116;-61
2023/03/03 09:30:56;;;;;;;2.22;0.95;;;7.80;99.90;;;;;;5024090;28;20030;-60
2023/03/03 09:33:24;;;;;;;3.78;1.23;;;8.00;99.90;;;;;;4989328;28;20037;-60
2023/03/03 09:36:10;;;;;;;6.55;0.95;;;8.20;99.90;;;;;;5007262;28;20245;-61
2023/03/03 09:38:42;;;;;;;6.40;1.20;;;8.20;99.90;;;;;;4996378;28;20065;-60
2023/03/03 09:41:17;;;;;;;14.43;1.63;;;8.10;99.90;;;;;;5006990;28;20049;-60
2023/03/03 09:44:03;;;;;;;12.70;1.58;;;8.00;99.90;;;;;;5002688;28;20064;-60
2023/03/03 09:47:17;;;;;;;5.05;1.95;;;7.90;99.90;;;;;;4974009;28;20041;-60
2023/03/03 09:50:06;;;;;;;7.88;1.40;;;7.70;99.90;;;;;;4930802;28;20044;-60
2023/03/03 09:53:09;;;;;;;2.72;0.50;;;7.60;99.90;;;;;;5031188;28;20041;-59
2023/03/03 09:55:50;;;;;;;1.63;0.65;;;7.50;99.90;;;;;;5013075;28;20053;-60
2023/03/03 09:58:47;;;;;;;5.28;1.00;;;7.40;99.90;;;;;;4996659;28;20076;-61
2023/03/03 10:01:15;;;;;;;4.18;0.98;;;7.40;99.90;;;;;;5006387;28;20720;-61
2023/03/03 10:03:55;;;;;;;4.88;0.98;;;7.40;99.90;;;;;;5025446;28;20045;-60
2023/03/03 10:06:37;;;;;;;4.00;1.00;;;7.40;99.90;;;;;;5013312;28;20048;-61
2023/03/03 10:09:36;;;;;;;5.32;1.00;;;7.40;99.90;;;;;;5014785;28;20124;-61
2023/03/03 10:12:11;;;;;;;3.50;0.90;;;7.30;99.90;;;;;;5030799;28;20033;-60
2023/03/03 10:15:02;;;;;;;5.30;1.05;;;7.20;99.90;;;;;;5012534;28;20136;-60
2023/03/03 10:17:51;;;;;;;5.13;1.02;;;7.20;99.90;;;;;;5010526;28;20061;-60
2023/03/03 10:20:39;;;;;;;5.15;1.00;;;7.20;99.90;;;;;;4995600;28;20095;-60
2023/03/03 10:23:14;;;;;;;2.05;0.75;;;7.20;99.90;;;;;;5011173;28;20046;-60
2023/03/03 10:26:18;;;;;;;2.40;1.00;;;7.10;99.90;;;;;;5013563;28;20045;-60
2023/03/03 10:28:53;;;;;;;4.82;1.45;;;7.20;99.90;;;;;;5007176;28;20045;-60
2023/03/03 10:31:46;;;;;;;4.93;1.00;;;7.20;99.90;;;;;;5018909;28;20045;-61
2023/03/03 10:34:26;;;;;;;3.95;1.05;;;7.30;99.90;;;;;;5019721;28;20033;-61
2023/03/03 10:37:08;;;;;;;2.33;1.00;;;7.30;99.90;;;;;;5036680;28;20045;-62
2023/03/03 10:39:52;;;;;;;3.00;1.08;;;7.20;99.90;;;;;;5017574;28;20052;-63
2023/03/03 10:42:41;;;;;;;5.55;0.98;;;7.20;99.90;;;;;;5029353;28;20072;-63
2023/03/03 10:45:37;;;;;;;7.60;0.90;;;7.20;99.90;;;;;;5004806;28;20554;-63
2023/03/03 10:48:32;;;;;;;5.15;0.93;;;7.30;99.90;;;;;;5024985;28;20056;-63
2023/03/03 10:51:17;;;;;;;3.17;0.95;;;7.40;99.90;;;;;;5024314;28;20029;-63
2023/03/03 10:54:01;;;;;;;3.55;1.02;;;7.40;99.90;;;;;;5017943;28;20140;-62
2023/03/03 10:56:41;;;;;;;3.80;0.95;;;7.50;99.90;;;;;;4997415;28;20100;-62
2023/03/03 10:59:40;;;;;;;1.85;0.73;;;7.60;99.90;;;;;;4997368;28;20049;-63
2023/03/03 11:02:11;;;;;;;3.63;0.80;;;7.70;99.90;;;;;;5016045;28;20316;-63
2023/03/03 11:04:58;;;;;;;4.10;0.80;;;7.80;99.90;;;;;;5017894;28;20140;-63
2023/03/03 11:07:39;;;;;;;3.88;1.00;;;7.90;99.90;;;;;;5032488;28;20056;-62
2023/03/03 11:10:19;;;;;;;4.15;0.95;;;7.80;99.90;;;;;;5022661;28;20069;-62
2023/03/03 11:12:46;;;;;;;4.65;1.33;;;7.80;99.90;;;;;;5018576;28;20038;-63
2023/03/03 11:15:30;;;;;;;3.47;0.95;;;7.80;99.90;;;;;;4997055;28;20045;-62
2023/03/03 11:18:19;;;;;;;5.10;0.80;;;7.70;99.90;;;;;;5018887;28;20460;-63
2023/03/03 11:20:58;;;;;;;6.07;0.90;;;7.70;99.90;;;;;;5017029;28;20037;-63
2023/03/03 11:24:08;;;;;;;8.18;1.08;;;7.70;99.90;;;;;;5030213;28;20044;-62
2023/03/03 11:26:54;;;;;;;5.10;0.82;;;7.90;99.90;;;;;;4996608;28;20142;-63
2023/03/03 11:29:33;;;;;;;2.80;1.15;;;8.10;99.90;;;;;;5020339;28;20064;-63
2023/03/03 11:32:35;;;;;;;3.88;0.85;;;8.20;99.90;;;;;;4998415;28;20053;-63
2023/03/03 11:35:24;;;;;;;8.77;1.20;;;8.10;99.90;;;;;;5019237;28;20102;-63
2023/03/03 11:37:52;;;;;;;4.60;1.20;;;8.10;99.90;;;;;;5017384;28;20048;-63
2023/03/03 11:40:29;;;;;;;6.72;1.88;;;8.00;99.90;;;;;;5022878;28;20496;-63
2023/03/03 11:43:09;;;;;;;4.60;1.38;;;8.00;99.90;;;;;;5016346;28;20416;-63
2023/03/03 11:46:18;;;;;;;5.35;1.00;;;8.00;99.90;;;;;;5022285;28;20739;-63
2023/03/03 11:49:16;;;;;;;7.15;1.10;;;8.10;99.90;;;;;;5027626;28;20401;-63
2023/03/03 11:52:16;;;;;;;10.88;1.60;;;8.30;99.90;;;;;;5017897;28;20793;-63
2023/03/03 11:54:47;;;;;;;6.13;1.98;;;8.20;99.90;;;;;;5018079;28;20056;-63
2023/03/03 11:57:13;;;;;;;6.97;1.58;;;8.20;99.90;;;;;;5017872;28;20492;-63
2023/03/03 11:59:59;;;;;;;6.78;1.33;;;8.10;99.90;;;;;;5021292;28;20124;-63
2023/03/03 12:02:29;;;;;;;6.60;1.17;;;8.00;99.90;;;;;;5012265;28;20048;-62
2023/03/03 12:05:37;;;;;;;10.15;1.80;;;8.00;99.90;;;;;;5019030;28;20524;-63
2023/03/03 12:08:20;;;;;;;7.70;1.27;;;8.30;99.90;;;;;;5007755;28;20076;-62
2023/03/03 12:10:58;;;;;;;6.03;1.23;;;8.40;99.90;;;;;;5015851;28;20041;-63
2023/03/03 12:13:39;;;;;;;6.63;1.30;;;8.80;99.90;;;;;;5018044;28;20069;-63
2023/03/03 12:16:17;;;;;;;9.13;1.75;;;8.80;99.90;;;;;;5028620;22;20171;-58
2023/03/03 12:18:52;;;;;;;11.55;2.25;;;8.80;99.90;;;;;;5019601;28;20053;-60
2023/03/03 12:21:33;;;;;;;11.52;1.95;;;8.80;99.90;;;;;;5004996;28;20095;-58
2023/03/03 12:24:17;;;;;;;6.35;1.42;;;8.70;99.90;;;;;;5007905;28;20064;-58
2023/03/03 12:26:52;;;;;;;9.48;1.63;;;8.60;99.90;;;;;;5018111;28;20423;-59
2023/03/03 12:29:33;;;;;;;9.70;1.70;;;8.60;99.90;;;;;;5016071;28;20629;-59
2023/03/03 12:32:51;;;;;;;10.00;1.50;;;8.40;99.90;;;;;;5014229;28;20044;-59
2023/03/03 12:35:22;;;;;;;7.93;1.20;;;8.40;99.90;;;;;;5013420;28;20045;-59
2023/03/03 12:38:39;;;;;;;7.97;1.38;;;8.40;99.90;;;;;;5021292;28;20045;-58
2023/03/03 12:41:36;;;;;;;10.82;1.70;;;8.40;99.90;;;;;;4980624;28;20548;-59
2023/03/03 12:44:20;;;;;;;11.25;1.83;;;8.40;99.90;;;;;;5016219;28;20071;-58
2023/03/03 12:46:51;;;;;;;11.95;2.90;;;8.40;99.90;;;;;;5018959;28;20053;-59
2023/03/03 12:49:17;;;;;;;8.02;1.75;;;8.40;99.90;;;;;;5021171;28;20128;-55
2023/03/03 12:52:08;;;;;;;11.68;1.95;;;8.30;99.90;;;;;;5021523;28;20179;-57
2023/03/03 12:54:44;;;;;;;10.55;1.75;;;8.40;99.90;;;;;;5004808;28;20068;-59
2023/03/03 12:57:20;;;;;;;6.53;1.75;;;8.70;99.90;;;;;;5052474;22;20488;-62
2023/03/03 12:59:48;;;;;;;12.82;2.22;;;8.80;99.90;;;;;;5028947;28;20049;-62
2023/03/03 13:02:27;;;;;;;16.42;2.58;;;8.90;99.90;;;;;;5034278;28;20033;-62
2023/03/03 13:05:01;;;;;;;14.35;2.40;;;8.90;99.90;;;;;;5019156;28;20508;-61
2023/03/03 13:07:45;;;;;;;10.60;1.83;;;8.70;99.90;;;;;;5030439;28;20037;-61
2023/03/03 13:10:22;;;;;;;14.15;1.80;;;8.70;99.90;;;;;;5035849;28;20562;-62
2023/03/03 13:12:51;;;;;;;11.45;2.20;;;8.50;99.90;;;;;;5025801;28;20555;-61
2023/03/03 13:15:27;;;;;;;11.55;2.28;;;8.50;99.90;;;;;;5020928;28;20079;-61
2023/03/03 13:17:59;;;;;;;17.30;2.72;;;8.50;99.90;;;;;;5028001;28;20041;-61
2023/03/03 13:20:47;;;;;;;15.45;2.67;;;8.40;99.90;;;;;;5020740;28;20551;-61